Time;durP1;ratioP1;P1;durP2;ratioP2;P2;SDS_P1;SDS_P2;PMS_P1;PMS_P2;Temp;Humidity;BMP_temperature;BMP_pressure;BME280_temperature;BME280_humidity;BME280_pressure;Samples;Min_cycle;Max_cycle;Signal;HPM_P1;HPM_P2
2023/04/05 00:01:06;;;;;;;7.27;6.57;;;4.50;76.60;;;;;;10455858;28;20622;-84
2023/04/05 00:06:15;;;;;;;6.73;6.13;;;4.50;75.60;;;;;;10450100;28;20320;-84
2023/04/05 00:11:31;;;;;;;7.63;6.93;;;4.50;77.30;;;;;;10434379;28;20197;-84
2023/04/05 00:16:46;;;;;;;6.27;5.73;;;4.50;75.30;;;;;;10459403;28;20664;-84
2023/04/05 00:21:48;;;;;;;7.17;6.57;;;4.50;74.90;;;;;;10480728;28;20196;-83
2023/04/05 00:27:15;;;;;;;6.23;5.67;;;4.50;75.00;;;;;;10441873;28;20224;-84
2023/04/05 00:32:23;;;;;;;7.40;6.80;;;4.50;76.30;;;;;;10423038;28;20224;-83
2023/04/05 00:37:32;;;;;;;7.90;6.33;;;4.50;75.80;;;;;;10448092;28;20191;-84
2023/04/05 00:42:46;;;;;;;6.80;6.20;;;4.50;76.80;;;;;;10438803;28;20212;-82
2023/04/05 00:48:10;;;;;;;6.43;5.77;;;4.60;75.10;;;;;;10389027;28;20208;-82
2023/04/05 00:53:16;;;;;;;7.00;6.40;;;4.50;76.90;;;;;;10385558;28;20247;-83
2023/04/05 00:58:27;;;;;;;8.20;7.40;;;4.50;76.20;;;;;;10439394;28;20210;-83
2023/04/05 01:03:33;;;;;;;8.27;7.07;;;4.50;76.60;;;;;;10463102;28;20218;-82
2023/04/05 01:08:50;;;;;;;7.30;6.67;;;4.50;76.40;;;;;;10464715;28;20280;-82
2023/04/05 01:13:59;;;;;;;31.97;18.20;;;4.40;76.10;;;;;;10429022;28;20226;-82
2023/04/05 01:19:08;;;;;;;10.20;9.17;;;4.30;77.60;;;;;;10452108;28;20208;-82
2023/04/05 01:24:24;;;;;;;10.10;9.07;;;4.30;78.60;;;;;;10458630;28;20221;-82
2023/04/05 01:30:02;;;;;;;9.30;8.40;;;4.30;77.50;;;;;;10456214;28;20211;-82
2023/04/05 01:35:17;;;;;;;7.17;6.63;;;4.40;76.50;;;;;;10444970;28;20743;-81
2023/04/05 01:40:30;;;;;;;7.87;7.17;;;4.40;76.60;;;;;;10440748;28;20221;-81
2023/04/05 01:45:45;;;;;;;18.57;14.57;;;4.30;76.90;;;;;;10432049;28;20301;-82
2023/04/05 01:50:50;;;;;;;7.23;6.73;;;4.20;77.10;;;;;;10453665;28;20198;-82
2023/04/05 01:56:00;;;;;;;8.03;7.27;;;4.20;75.80;;;;;;10444903;28;20226;-82
2023/04/05 02:01:06;;;;;;;8.90;7.97;;;4.20;76.80;;;;;;10462822;28;20219;-81
2023/04/05 02:06:19;;;;;;;7.40;6.70;;;4.10;77.20;;;;;;10457746;28;20596;-82
2023/04/05 02:11:29;;;;;;;7.77;7.10;;;4.10;75.90;;;;;;10443323;28;20240;-82
2023/04/05 02:16:35;;;;;;;7.90;7.20;;;4.10;77.20;;;;;;10448985;28;20240;-82
2023/04/05 02:21:37;;;;;;;7.80;7.07;;;4.10;77.10;;;;;;10460960;28;20205;-82
2023/04/05 02:26:40;;;;;;;8.33;7.53;;;4.10;77.30;;;;;;10449086;28;20246;-82
2023/04/05 02:31:43;;;;;;;8.20;7.50;;;4.00;78.20;;;;;;10447802;28;20204;-82
2023/04/05 02:36:49;;;;;;;7.80;7.20;;;4.00;77.20;;;;;;10423761;28;20200;-82
2023/04/05 02:41:55;;;;;;;8.47;7.77;;;4.10;76.50;;;;;;10429279;28;20358;-82
2023/04/05 02:47:02;;;;;;;8.60;7.90;;;4.00;77.70;;;;;;10447007;28;20215;-81
2023/04/05 02:52:07;;;;;;;12.30;8.20;;;4.00;77.90;;;;;;10442168;28;20260;-82
2023/04/05 02:57:11;;;;;;;8.20;7.43;;;4.00;78.30;;;;;;10448810;28;20203;-82
2023/04/05 03:02:23;;;;;;;10.20;8.23;;;4.00;77.70;;;;;;10466154;22;20286;-81
2023/04/05 03:07:26;;;;;;;8.33;7.53;;;4.10;78.40;;;;;;10458433;28;20589;-79
2023/04/05 03:12:29;;;;;;;8.17;7.50;;;4.10;78.50;;;;;;10460189;28;20293;-79
2023/04/05 03:17:32;;;;;;;9.20;8.30;;;4.10;77.10;;;;;;10457379;28;20200;-80
2023/04/05 03:22:41;;;;;;;7.40;6.80;;;4.00;78.80;;;;;;10458976;28;20224;-80
2023/04/05 03:27:44;;;;;;;9.27;8.47;;;4.00;77.70;;;;;;10451103;28;20314;-80
2023/04/05 03:32:52;;;;;;;9.10;7.70;;;3.90;79.50;;;;;;10442147;28;20244;-82
2023/04/05 03:38:09;;;;;;;9.23;8.43;;;3.90;79.40;;;;;;10457044;28;20277;-82
2023/04/05 03:43:16;;;;;;;9.13;8.23;;;3.80;80.10;;;;;;10443464;28;20639;-80
2023/04/05 03:48:20;;;;;;;9.33;8.53;;;3.80;79.60;;;;;;10453455;28;20252;-80
2023/04/05 03:53:25;;;;;;;7.60;7.00;;;3.80;79.20;;;;;;10453953;28;20219;-82
2023/04/05 03:58:30;;;;;;;9.57;8.60;;;3.80;78.70;;;;;;10470024;28;20208;-81
2023/04/05 04:03:36;;;;;;;9.37;8.60;;;3.70;79.20;;;;;;10449323;28;20237;-81
2023/04/05 04:08:39;;;;;;;9.27;8.47;;;3.60;80.40;;;;;;10437093;28;20221;-81
2023/04/05 04:13:41;;;;;;;9.80;8.90;;;3.50;80.20;;;;;;10455999;28;20218;-81
2023/04/05 04:19:05;;;;;;;9.33;8.40;;;3.60;79.70;;;;;;10453459;28;20298;-81
2023/04/05 04:24:39;;;;;;;9.13;8.30;;;3.50;80.40;;;;;;10454401;28;20728;-80
2023/04/05 04:30:16;;;;;;;10.63;9.57;;;3.40;81.20;;;;;;10442821;28;20782;-81
2023/04/05 04:35:29;;;;;;;9.80;8.90;;;3.40;80.50;;;;;;10453613;28;20631;-81
2023/04/05 04:40:53;;;;;;;9.00;8.20;;;3.30;81.00;;;;;;10452838;28;20247;-80
2023/04/05 04:45:59;;;;;;;10.47;9.57;;;3.30;81.40;;;;;;10448922;28;20217;-78
2023/04/05 04:51:16;;;;;;;15.63;11.60;;;3.30;82.10;;;;;;10452290;28;20566;-78
2023/04/05 04:56:18;;;;;;;9.23;8.53;;;3.30;83.10;;;;;;10452974;28;20217;-81
2023/04/05 05:01:21;;;;;;;10.93;9.60;;;3.30;81.90;;;;;;10451986;28;20486;-80
2023/04/05 05:06:26;;;;;;;12.67;10.33;;;3.30;81.70;;;;;;10486819;28;20217;-81
2023/04/05 05:11:28;;;;;;;10.50;8.70;;;3.20;82.00;;;;;;10457307;28;20264;-80
2023/04/05 05:16:34;;;;;;;10.67;8.77;;;3.20;81.40;;;;;;10455115;28;20210;-79
2023/04/05 05:21:38;;;;;;;10.10;9.10;;;3.20;82.80;;;;;;10459542;28;20715;-81
2023/04/05 05:26:40;;;;;;;11.03;9.90;;;3.30;83.20;;;;;;10450653;28;20275;-80
2023/04/05 05:31:42;;;;;;;12.13;10.80;;;3.30;82.60;;;;;;10424438;28;20722;-80
2023/04/05 05:36:45;;;;;;;12.43;11.23;;;3.30;81.70;;;;;;10460917;28;20210;-81
2023/04/05 05:41:47;;;;;;;16.80;10.63;;;3.30;82.50;;;;;;10461713;28;20203;-79
2023/04/05 05:46:50;;;;;;;11.20;9.70;;;3.30;82.70;;;;;;10460804;28;20210;-79
2023/04/05 05:51:53;;;;;;;12.10;10.53;;;3.30;83.20;;;;;;10461513;28;20206;-80
2023/04/05 05:56:55;;;;;;;12.40;11.13;;;3.30;84.00;;;;;;10444056;28;20268;-80
2023/04/05 06:01:57;;;;;;;16.10;13.10;;;3.30;84.40;;;;;;10462395;28;20285;-80
2023/04/05 06:07:01;;;;;;;11.63;10.43;;;3.40;83.60;;;;;;10443437;28;20708;-79
2023/04/05 06:12:04;;;;;;;12.13;11.00;;;3.40;84.10;;;;;;10464996;28;20633;-80
2023/04/05 06:17:06;;;;;;;11.00;10.00;;;3.50;86.20;;;;;;10460816;28;20226;-81
2023/04/05 06:22:10;;;;;;;12.80;10.47;;;3.60;85.50;;;;;;10461715;28;20293;-80
2023/04/05 06:27:13;;;;;;;12.27;11.20;;;3.70;84.90;;;;;;10461255;28;20213;-80
2023/04/05 06:32:15;;;;;;;13.10;11.70;;;3.80;84.10;;;;;;10444342;28;20216;-80
2023/04/05 06:37:18;;;;;;;13.43;11.90;;;4.00;85.00;;;;;;10462082;28;20201;-80
2023/04/05 06:42:21;;;;;;;11.90;10.70;;;4.10;84.80;;;;;;10461713;28;20266;-80
2023/04/05 06:47:29;;;;;;;17.33;12.83;;;4.20;83.80;;;;;;10460381;28;20228;-80
2023/04/05 06:52:33;;;;;;;13.70;12.37;;;4.40;83.60;;;;;;10442701;28;20219;-80
2023/04/05 06:57:35;;;;;;;14.93;12.77;;;4.50;84.10;;;;;;10442956;28;20220;-80
2023/04/05 07:02:37;;;;;;;14.30;12.40;;;4.60;84.10;;;;;;10462210;28;20251;-81
2023/04/05 07:07:43;;;;;;;13.23;12.00;;;4.70;84.60;;;;;;10460386;28;20632;-81
2023/04/05 07:12:45;;;;;;;12.93;11.67;;;4.80;84.10;;;;;;10442909;28;20351;-81
2023/04/05 07:17:48;;;;;;;12.83;11.67;;;4.90;84.50;;;;;;10459563;28;20705;-81
2023/04/05 07:22:51;;;;;;;13.83;12.33;;;5.10;83.80;;;;;;10443872;28;20306;-81
2023/04/05 07:27:53;;;;;;;16.47;13.17;;;5.10;83.50;;;;;;10460224;28;20265;-81
2023/04/05 07:32:55;;;;;;;11.43;10.53;;;5.30;83.10;;;;;;10459060;28;20271;-79
2023/04/05 07:37:59;;;;;;;14.67;13.23;;;5.40;82.40;;;;;;10459073;28;20194;-81
2023/04/05 07:43:01;;;;;;;13.83;12.43;;;5.50;82.90;;;;;;10458485;28;20220;-81
2023/04/05 07:48:03;;;;;;;15.60;12.73;;;5.50;82.70;;;;;;10457836;28;20222;-80
2023/04/05 07:53:07;;;;;;;18.20;13.90;;;5.70;82.20;;;;;;10458864;28;20252;-82
2023/04/05 07:58:10;;;;;;;15.83;13.80;;;5.90;79.90;;;;;;10459243;28;20221;-82
2023/04/05 08:03:12;;;;;;;18.03;14.80;;;6.20;82.10;;;;;;10460846;28;20627;-81
2023/04/05 08:08:15;;;;;;;13.03;11.70;;;6.70;80.90;;;;;;10459935;28;20266;-81
2023/04/05 08:13:18;;;;;;;14.23;12.80;;;7.10;78.70;;;;;;10461704;28;20218;-82
2023/04/05 08:18:20;;;;;;;15.30;13.77;;;7.50;76.40;;;;;;10462048;28;20228;-81
2023/04/05 08:23:24;;;;;;;13.20;11.77;;;7.70;76.10;;;;;;10460412;28;20208;-82
2023/04/05 08:28:26;;;;;;;13.43;12.03;;;7.90;74.80;;;;;;10457822;28;20247;-80
2023/04/05 08:33:29;;;;;;;13.77;11.10;;;8.10;72.20;;;;;;10458989;28;20624;-80
2023/04/05 08:38:33;;;;;;;11.97;10.87;;;8.30;70.90;;;;;;10440617;28;20223;-81
2023/04/05 08:43:45;;;;;;;11.33;10.27;;;8.40;68.00;;;;;;10459341;28;20307;-81
2023/04/05 08:48:47;;;;;;;10.67;9.20;;;8.60;63.00;;;;;;10447184;28;20244;-80
2023/04/05 08:53:51;;;;;;;10.60;9.43;;;8.60;62.20;;;;;;10439553;28;20723;-80
2023/04/05 08:58:58;;;;;;;10.90;9.90;;;8.50;65.80;;;;;;10457463;28;20191;-80
2023/04/05 09:04:06;;;;;;;10.50;8.67;;;8.70;65.10;;;;;;10450703;22;20310;-83
2023/04/05 09:09:18;;;;;;;7.20;6.53;;;8.90;62.10;;;;;;10385606;28;20278;-83
2023/04/05 09:14:30;;;;;;;8.37;7.67;;;9.10;59.80;;;;;;10376920;28;20275;-83
2023/04/05 09:25:51;;;;;;;7.60;7.03;;;9.50;62.30;;;;;;10392599;28;20238;-82
2023/04/05 09:31:06;;;;;;;7.03;6.40;;;9.80;59.60;;;;;;10390377;28;20229;-82
2023/04/05 09:36:11;;;;;;;8.03;7.33;;;10.00;58.50;;;;;;10348682;28;20231;-81
2023/04/05 09:41:30;;;;;;;7.77;7.17;;;10.20;58.40;;;;;;10379040;28;20557;-81
2023/04/05 09:46:37;;;;;;;7.00;6.40;;;10.20;55.20;;;;;;10342324;28;20309;-82
2023/04/05 09:51:45;;;;;;;6.73;6.03;;;10.20;57.40;;;;;;10345225;28;20194;-83
2023/04/05 09:56:56;;;;;;;8.40;7.60;;;10.50;56.10;;;;;;10385082;28;20701;-84
2023/04/05 10:02:02;;;;;;;7.37;6.77;;;10.80;54.70;;;;;;10361692;28;20191;-84
2023/04/05 10:07:08;;;;;;;7.20;6.53;;;10.90;55.50;;;;;;10349608;28;20238;-84
2023/04/05 10:12:21;;;;;;;6.57;6.07;;;11.10;55.70;;;;;;10357043;28;20222;-80
2023/04/05 10:17:31;;;;;;;7.80;7.20;;;11.10;55.50;;;;;;10404958;28;20214;-80
2023/04/05 10:22:41;;;;;;;6.70;6.10;;;10.90;54.10;;;;;;10338886;28;20238;-83
2023/04/05 10:27:52;;;;;;;8.13;7.50;;;10.60;54.20;;;;;;10401664;28;20459;-81
2023/04/05 10:33:11;;;;;;;7.40;6.70;;;10.40;55.30;;;;;;10379301;28;20219;-82
2023/04/05 10:38:21;;;;;;;7.10;6.50;;;10.10;56.70;;;;;;10341813;28;20189;-83
2023/04/05 10:43:29;;;;;;;7.43;6.83;;;10.00;55.40;;;;;;10370716;28;20241;-83
2023/04/05 10:48:44;;;;;;;8.03;7.10;;;9.80;55.70;;;;;;10355332;28;20220;-83
2023/04/05 10:53:49;;;;;;;7.73;7.00;;;9.70;54.60;;;;;;10352707;28;20313;-82
2023/04/05 10:59:06;;;;;;;7.30;6.77;;;9.50;56.30;;;;;;10372175;28;20247;-83
2023/04/05 11:04:14;;;;;;;7.00;6.40;;;9.50;55.70;;;;;;10354609;28;20702;-83
2023/04/05 11:09:24;;;;;;;7.00;6.40;;;9.40;56.90;;;;;;10349305;28;20250;-82
2023/04/05 11:14:39;;;;;;;7.80;7.20;;;9.30;58.70;;;;;;10368988;28;20221;-84
2023/04/05 11:19:50;;;;;;;6.80;6.20;;;9.30;56.50;;;;;;10350212;28;20198;-83
2023/04/05 11:24:57;;;;;;;8.03;7.20;;;9.30;58.10;;;;;;10369542;28;20246;-83
2023/04/05 11:30:05;;;;;;;8.83;8.03;;;9.30;59.00;;;;;;10369340;28;20220;-84
2023/04/05 11:35:16;;;;;;;8.40;7.60;;;9.30;58.10;;;;;;10363713;28;20324;-82
2023/04/05 11:40:26;;;;;;;7.80;7.20;;;9.30;56.20;;;;;;10361829;28;20288;-82
2023/04/05 11:45:31;;;;;;;7.03;6.50;;;9.30;55.40;;;;;;10367180;28;20689;-83
2023/04/05 11:50:35;;;;;;;7.77;7.17;;;9.30;55.70;;;;;;10359776;28;20217;-83
2023/04/05 11:55:37;;;;;;;7.00;6.40;;;9.30;56.60;;;;;;10366319;28;20216;-83
2023/04/05 12:00:41;;;;;;;7.90;7.20;;;9.30;56.60;;;;;;10358566;28;20199;-83
2023/04/05 12:05:50;;;;;;;8.40;7.60;;;9.30;56.40;;;;;;10362486;28;20293;-83
2023/04/05 12:10:56;;;;;;;8.10;7.50;;;9.30;57.00;;;;;;10354321;28;20225;-82
2023/04/05 12:16:00;;;;;;;7.83;6.53;;;9.30;54.80;;;;;;10365098;28;20313;-83
2023/04/05 12:21:04;;;;;;;7.50;6.67;;;9.40;54.70;;;;;;10367862;28;20643;-82
2023/04/05 12:26:08;;;;;;;7.80;7.10;;;9.30;56.90;;;;;;10365699;28;20253;-83
2023/04/05 12:31:11;;;;;;;7.10;6.50;;;9.30;57.20;;;;;;10336687;28;20224;-83
2023/04/05 12:36:14;;;;;;;7.07;6.57;;;9.30;56.70;;;;;;10366748;28;20223;-82
2023/04/05 12:41:16;;;;;;;6.63;6.13;;;9.40;57.60;;;;;;10363213;28;20208;-81
2023/04/05 12:46:20;;;;;;;7.03;6.50;;;9.40;59.50;;;;;;10357150;28;20218;-84
2023/04/05 12:51:24;;;;;;;8.33;7.63;;;9.50;57.90;;;;;;10386941;28;20215;-82
2023/04/05 12:56:29;;;;;;;6.97;6.37;;;9.50;58.10;;;;;;10370332;28;20726;-81
2023/04/05 13:01:32;;;;;;;7.17;6.40;;;9.60;56.70;;;;;;10357742;28;20247;-82
2023/04/05 13:06:39;;;;;;;7.50;6.90;;;9.60;56.30;;;;;;10374956;28;20269;-83
2023/04/05 13:11:47;;;;;;;6.20;5.70;;;9.60;57.10;;;;;;10356850;28;20282;-84
2023/04/05 13:16:59;;;;;;;6.83;6.43;;;9.60;57.80;;;;;;10360203;28;20243;-83
2023/04/05 13:22:04;;;;;;;8.20;7.50;;;9.60;56.40;;;;;;10355616;28;20258;-83
2023/04/05 13:27:06;;;;;;;9.53;6.70;;;9.60;56.90;;;;;;10384904;28;20671;-80
2023/04/05 13:32:09;;;;;;;7.60;6.20;;;9.60;56.70;;;;;;10366226;28;20346;-81
2023/04/05 13:37:12;;;;;;;6.50;6.00;;;9.70;56.80;;;;;;10357908;28;20199;-81
2023/04/05 13:42:14;;;;;;;7.53;6.87;;;9.80;58.00;;;;;;10346679;28;20227;-82
2023/04/05 13:47:18;;;;;;;7.60;6.93;;;9.80;57.70;;;;;;10334495;28;20259;-82
2023/04/05 13:52:20;;;;;;;7.90;7.30;;;9.90;55.60;;;;;;10367677;28;20558;-82
2023/04/05 13:57:22;;;;;;;7.07;6.47;;;10.00;57.80;;;;;;10351400;28;20236;-83
2023/04/05 14:02:26;;;;;;;7.40;6.80;;;10.00;55.60;;;;;;10371092;28;20746;-83
2023/04/05 14:07:28;;;;;;;7.80;7.10;;;10.10;54.20;;;;;;10368266;28;20658;-83
2023/04/05 14:12:41;;;;;;;8.10;7.27;;;10.10;53.70;;;;;;10353277;28;20214;-82
2023/04/05 14:17:51;;;;;;;7.67;7.07;;;10.20;53.70;;;;;;10359808;28;20213;-81
2023/04/05 14:22:55;;;;;;;7.13;6.60;;;10.20;53.70;;;;;;10350328;28;20222;-84
2023/04/05 14:28:03;;;;;;;7.70;7.00;;;10.20;53.00;;;;;;10352764;28;20298;-82
2023/04/05 14:33:18;;;;;;;9.17;7.13;;;10.20;53.80;;;;;;10350497;28;20259;-83
2023/04/05 14:38:23;;;;;;;8.07;7.40;;;10.20;54.40;;;;;;10340473;28;20231;-82
2023/04/05 14:43:38;;;;;;;7.27;6.63;;;10.40;52.30;;;;;;10373391;28;20641;-82
2023/04/05 14:48:45;;;;;;;7.53;6.90;;;10.40;54.80;;;;;;10359495;28;20215;-82
2023/04/05 14:53:53;;;;;;;8.03;7.43;;;10.50;54.50;;;;;;10368374;28;20285;-81
2023/04/05 14:58:56;;;;;;;7.90;7.17;;;10.60;54.00;;;;;;10364572;28;20223;-81
2023/04/05 15:03:59;;;;;;;7.30;6.80;;;10.90;56.80;;;;;;10356744;28;20234;-83
2023/04/05 15:09:01;;;;;;;8.63;7.47;;;11.00;55.00;;;;;;10362255;28;20301;-83
2023/04/05 15:14:04;;;;;;;7.60;6.63;;;11.00;52.40;;;;;;10368466;28;20747;-83
2023/04/05 15:19:12;;;;;;;6.97;6.47;;;10.80;54.90;;;;;;10354706;28;20188;-82
2023/04/05 15:24:22;;;;;;;6.97;6.43;;;10.70;56.00;;;;;;10356475;28;20211;-82
2023/04/05 15:29:24;;;;;;;9.97;7.23;;;10.60;54.60;;;;;;10360815;28;20608;-83
2023/04/05 15:34:28;;;;;;;7.50;6.57;;;10.60;54.70;;;;;;10364830;28;20524;-83
2023/04/05 15:39:31;;;;;;;7.60;6.90;;;10.50;56.70;;;;;;10355791;28;20192;-83
2023/04/05 15:44:33;;;;;;;6.80;6.20;;;10.50;53.10;;;;;;10363486;28;20223;-81
2023/04/05 15:49:40;;;;;;;6.87;6.27;;;10.50;56.10;;;;;;10330319;28;20254;-81
2023/04/05 15:54:43;;;;;;;7.40;6.70;;;10.50;56.30;;;;;;10354058;28;20680;-83
2023/04/05 15:59:45;;;;;;;6.97;6.47;;;10.50;54.30;;;;;;10346095;28;20199;-81
2023/04/05 16:04:51;;;;;;;6.70;6.10;;;10.50;54.40;;;;;;10350636;28;20316;-81
2023/04/05 16:09:55;;;;;;;6.87;6.30;;;10.50;55.70;;;;;;10362465;28;20227;-80
2023/04/05 16:15:03;;;;;;;6.87;6.37;;;10.50;58.10;;;;;;10359461;28;20276;-82
2023/04/05 16:20:17;;;;;;;7.20;6.60;;;10.50;53.80;;;;;;10332711;28;20199;-82
2023/04/05 16:25:37;;;;;;;7.23;6.63;;;10.50;52.60;;;;;;10352493;28;20224;-81
2023/04/05 16:30:44;;;;;;;7.30;6.80;;;10.40;52.30;;;;;;10366437;28;20590;-82
2023/04/05 16:35:55;;;;;;;6.73;6.27;;;10.40;53.30;;;;;;10355239;28;20369;-81
2023/04/05 16:41:03;;;;;;;7.10;6.50;;;10.40;57.10;;;;;;10355311;28;20655;-82
2023/04/05 16:51:45;;;;;;;6.97;6.37;;;10.30;54.60;;;;;;10356569;28;20238;-82
2023/04/05 17:02:37;;;;;;;6.93;6.30;;;10.20;56.00;;;;;;10368283;28;20226;-79
2023/04/05 17:07:41;;;;;;;7.20;6.60;;;10.10;57.80;;;;;;10374616;28;20225;-79
2023/04/05 17:12:44;;;;;;;7.20;6.70;;;10.10;56.80;;;;;;10372252;28;20228;-79
2023/04/05 17:17:46;;;;;;;8.03;7.23;;;10.10;56.80;;;;;;10364252;28;20210;-81
2023/04/05 17:22:50;;;;;;;7.37;6.77;;;10.10;58.60;;;;;;10332343;28;20254;-81
2023/04/05 17:27:52;;;;;;;7.83;7.10;;;10.00;60.60;;;;;;10364597;28;20274;-83
2023/04/05 17:32:55;;;;;;;11.73;7.10;;;10.00;58.80;;;;;;10351387;28;20227;-82
2023/04/05 17:37:58;;;;;;;7.97;7.20;;;9.90;63.40;;;;;;10340782;28;20655;-81
2023/04/05 17:43:00;;;;;;;8.67;7.97;;;9.90;63.40;;;;;;10339274;28;20214;-79
2023/04/05 17:48:02;;;;;;;6.87;6.33;;;9.80;59.00;;;;;;10350161;28;20225;-83
2023/04/05 17:53:06;;;;;;;7.63;6.97;;;9.80;59.90;;;;;;10323827;28;20640;-81
2023/04/05 17:58:08;;;;;;;7.37;6.70;;;9.70;59.40;;;;;;10349898;28;20209;-80
2023/04/05 18:03:10;;;;;;;6.93;6.33;;;9.70;58.70;;;;;;10367143;28;20708;-81
2023/04/05 18:08:14;;;;;;;6.93;6.20;;;9.60;60.00;;;;;;10372793;28;20237;-82
2023/04/05 18:13:16;;;;;;;7.00;6.33;;;9.50;65.10;;;;;;10355189;28;20227;-80
2023/04/05 18:18:18;;;;;;;6.30;5.70;;;9.50;63.90;;;;;;10355935;28;20667;-81
2023/04/05 18:23:23;;;;;;;7.23;5.83;;;9.40;62.70;;;;;;10360783;28;20224;-81
2023/04/05 18:28:25;;;;;;;7.23;6.53;;;9.40;60.30;;;;;;10364412;28;20206;-80
2023/04/05 18:33:28;;;;;;;7.93;6.40;;;9.30;61.00;;;;;;10355868;28;20730;-82
2023/04/05 18:38:31;;;;;;;9.17;8.23;;;9.20;61.40;;;;;;10357231;28;20222;-82
2023/04/05 18:43:33;;;;;;;8.67;7.87;;;9.00;62.00;;;;;;10362303;28;20222;-82
2023/04/05 18:48:37;;;;;;;8.27;7.47;;;8.80;62.00;;;;;;10366878;28;20713;-82
2023/04/05 18:53:41;;;;;;;7.00;6.40;;;8.60;62.50;;;;;;10379042;28;20256;-81
2023/04/05 18:58:43;;;;;;;8.60;7.70;;;8.50;62.80;;;;;;10376040;28;20208;-81
2023/04/05 19:03:46;;;;;;;7.93;7.27;;;8.30;62.80;;;;;;10372449;28;20306;-81
2023/04/05 19:08:50;;;;;;;8.63;7.77;;;8.10;63.60;;;;;;10373548;28;20216;-81
2023/04/05 19:13:53;;;;;;;10.90;7.00;;;8.00;64.50;;;;;;10376809;28;20220;-81
2023/04/05 19:18:55;;;;;;;6.73;6.07;;;7.90;64.40;;;;;;10376890;28;20196;-81
2023/04/05 19:23:59;;;;;;;8.40;6.80;;;7.80;64.70;;;;;;10375000;28;20221;-81
2023/04/05 19:29:02;;;;;;;8.93;7.80;;;7.70;64.80;;;;;;10363595;28;20227;-80
2023/04/05 19:34:06;;;;;;;9.93;7.50;;;7.60;65.10;;;;;;10384655;28;20216;-81
2023/04/05 19:39:10;;;;;;;8.63;7.93;;;7.50;65.70;;;;;;10370843;28;20244;-81
2023/04/05 19:44:12;;;;;;;9.43;8.37;;;7.40;65.50;;;;;;10369333;28;20302;-81
2023/04/05 19:49:29;;;;;;;35.17;24.70;;;7.30;66.80;;;;;;10346895;28;20223;-81
2023/04/05 19:54:32;;;;;;;24.10;17.10;;;7.20;67.10;;;;;;10356402;28;20710;-81
2023/04/05 19:59:34;;;;;;;20.00;14.90;;;7.20;66.50;;;;;;10371048;28;20199;-80
2023/04/05 20:04:37;;;;;;;11.33;10.23;;;7.00;67.80;;;;;;10365589;28;20231;-82
2023/04/05 20:09:41;;;;;;;10.57;9.47;;;7.00;67.50;;;;;;10335741;28;20216;-80
2023/04/05 20:14:46;;;;;;;8.70;7.77;;;7.00;68.00;;;;;;10358057;28;20238;-81
2023/04/05 20:19:56;;;;;;;9.40;7.73;;;6.90;68.70;;;;;;10353355;28;20259;-81
2023/04/05 20:25:01;;;;;;;9.00;8.30;;;6.90;68.00;;;;;;10342805;28;20276;-81
2023/04/05 20:30:10;;;;;;;9.30;8.40;;;6.80;68.70;;;;;;10340910;28;20208;-81
2023/04/05 20:35:31;;;;;;;8.13;7.27;;;6.80;69.00;;;;;;10362265;28;20226;-81
2023/04/05 20:40:35;;;;;;;9.67;8.77;;;6.80;68.50;;;;;;10375485;28;20289;-81
2023/04/05 20:45:37;;;;;;;8.97;8.17;;;6.70;69.10;;;;;;10357533;28;20243;-81
2023/04/05 20:50:39;;;;;;;9.50;8.70;;;6.70;69.10;;;;;;10373930;28;20592;-81
2023/04/05 20:55:43;;;;;;;9.80;8.80;;;6.50;70.10;;;;;;10376783;28;20258;-79
2023/04/05 21:00:45;;;;;;;11.00;9.07;;;6.50;70.40;;;;;;10338123;28;20691;-80
2023/04/05 21:05:47;;;;;;;9.60;8.70;;;6.50;70.30;;;;;;10434610;22;20285;-81
2023/04/05 21:10:51;;;;;;;10.20;9.10;;;6.40;69.70;;;;;;10428988;28;20218;-80
2023/04/05 21:15:54;;;;;;;10.00;8.40;;;6.40;70.60;;;;;;10429451;28;20223;-81
2023/04/05 21:20:56;;;;;;;10.20;9.20;;;6.30;70.70;;;;;;10413327;28;20209;-81
2023/04/05 21:26:00;;;;;;;9.57;8.67;;;6.30;70.50;;;;;;10428770;28;20220;-79
2023/04/05 21:31:02;;;;;;;10.40;8.70;;;6.20;70.70;;;;;;10412256;28;20217;-79
2023/04/05 21:36:05;;;;;;;9.53;8.77;;;6.20;70.20;;;;;;10405321;28;20221;-79
2023/04/05 21:41:08;;;;;;;9.40;8.50;;;6.10;71.00;;;;;;10422852;28;20191;-79
2023/04/05 21:46:10;;;;;;;8.80;8.00;;;6.10;71.50;;;;;;10423032;28;20244;-80
2023/04/05 21:51:13;;;;;;;8.57;7.87;;;6.10;71.30;;;;;;10408116;28;20225;-81
2023/04/05 21:56:17;;;;;;;8.60;7.90;;;6.00;71.70;;;;;;10407701;28;20226;-80
2023/04/05 22:01:20;;;;;;;7.73;7.00;;;6.10;70.40;;;;;;10423780;28;20191;-79
2023/04/05 22:06:22;;;;;;;8.10;7.30;;;6.10;72.00;;;;;;10408961;28;20758;-79
2023/04/05 22:11:26;;;;;;;8.77;7.80;;;6.10;72.30;;;;;;10426918;28;20218;-79
2023/04/05 22:16:28;;;;;;;8.33;7.63;;;6.10;73.00;;;;;;10424080;28;20225;-80
2023/04/05 22:21:30;;;;;;;8.10;7.23;;;6.10;72.90;;;;;;10425561;28;20212;-80
2023/04/05 22:26:34;;;;;;;8.63;7.83;;;6.10;71.90;;;;;;10424319;28;20271;-80
2023/04/05 22:31:36;;;;;;;8.23;7.53;;;6.10;70.60;;;;;;10405152;28;20688;-79
2023/04/05 22:36:38;;;;;;;7.73;7.03;;;6.00;71.00;;;;;;10419844;28;20316;-79
2023/04/05 22:41:42;;;;;;;7.90;7.30;;;6.00;72.50;;;;;;10402184;28;20227;-79
2023/04/05 22:46:44;;;;;;;8.80;8.00;;;5.90;72.00;;;;;;10400624;28;20292;-79
2023/04/05 22:51:46;;;;;;;9.17;7.63;;;5.90;72.30;;;;;;10419159;28;20215;-79
2023/04/05 22:56:50;;;;;;;8.27;7.53;;;5.90;72.00;;;;;;10418821;28;20242;-79
2023/04/05 23:01:52;;;;;;;9.33;8.23;;;5.80;73.50;;;;;;10419601;28;20197;-79
2023/04/05 23:06:54;;;;;;;8.73;7.80;;;5.80;73.80;;;;;;10418129;28;20230;-80
2023/04/05 23:11:57;;;;;;;9.40;8.67;;;5.80;74.10;;;;;;10417853;28;20219;-79
2023/04/05 23:17:01;;;;;;;8.93;8.03;;;5.70;73.90;;;;;;10414011;28;20224;-79
2023/04/05 23:22:03;;;;;;;8.90;8.20;;;5.70;73.70;;;;;;10413939;28;20635;-79
2023/04/05 23:27:07;;;;;;;10.50;9.50;;;5.70;75.20;;;;;;10411893;28;20217;-78
2023/04/05 23:32:11;;;;;;;8.77;7.93;;;5.70;74.00;;;;;;10421870;28;20293;-79
2023/04/05 23:37:13;;;;;;;9.53;8.73;;;5.60;73.40;;;;;;10415352;28;20207;-79
2023/04/05 23:42:17;;;;;;;9.57;8.57;;;5.50;74.50;;;;;;10417458;28;20196;-79
2023/04/05 23:47:19;;;;;;;9.97;9.07;;;5.50;74.80;;;;;;10415553;28;20228;-79
2023/04/05 23:52:21;;;;;;;9.90;9.00;;;5.50;74.70;;;;;;10418813;28;20217;-80
2023/04/05 23:57:25;;;;;;;9.57;8.77;;;5.50;75.30;;;;;;10398998;28;20268;-79
